createdAt,value
2023-01-04T00:01:23.078Z,0.50
2023-01-04T00:03:50.481Z,0.60
2023-01-04T00:06:18.809Z,0.45
2023-01-04T00:08:45.964Z,0.40
2023-01-04T00:11:19.202Z,0.50
2023-01-04T00:13:47.713Z,0.40
2023-01-04T00:16:17.812Z,0.40
2023-01-04T00:18:45.497Z,0.30
2023-01-04T00:21:16.547Z,0.30
2023-01-04T00:23:46.515Z,0.30
2023-01-04T00:26:25.469Z,0.30
2023-01-04T00:28:57.462Z,0.30
2023-01-04T00:31:25.788Z,0.32
2023-01-04T00:34:00.785Z,0.30
2023-01-04T00:36:28.413Z,0.30
2023-01-04T00:39:09.288Z,0.30
2023-01-04T00:42:05.427Z,0.30
2023-01-04T00:44:34.736Z,0.40
2023-01-04T00:47:03.605Z,0.32
2023-01-04T00:49:34.106Z,0.40
2023-01-04T00:52:01.499Z,0.30
2023-01-04T00:54:29.082Z,0.40
2023-01-04T00:56:56.385Z,0.38
2023-01-04T00:59:23.697Z,0.40
2023-01-04T01:01:51.869Z,0.40
2023-01-04T01:04:21.691Z,0.38
2023-01-04T01:06:49.795Z,1.13
2023-01-04T01:09:17.959Z,1.58
2023-01-04T01:11:45.181Z,1.50
2023-01-04T01:14:21.986Z,1.70
2023-01-04T01:16:58.385Z,1.80
2023-01-04T01:19:29.567Z,1.80
2023-01-04T01:21:58.338Z,1.73
2023-01-04T01:24:26.724Z,2.25
2023-01-04T01:26:54.968Z,2.20
2023-01-04T01:29:22.182Z,1.95
2023-01-04T01:31:49.359Z,1.80
2023-01-04T01:34:16.604Z,2.00
2023-01-04T01:36:43.930Z,1.70
2023-01-04T01:39:10.982Z,1.90
2023-01-04T01:41:38.615Z,2.00
2023-01-04T01:44:42.752Z,1.73
2023-01-04T01:47:38.193Z,2.13
2023-01-04T01:50:15.870Z,2.30
2023-01-04T01:52:43.311Z,1.77
2023-01-04T01:55:11.965Z,2.20
2023-01-04T01:57:41.054Z,2.50
2023-01-04T02:00:12.591Z,2.65
2023-01-04T02:03:03.751Z,2.17
2023-01-04T02:05:32.911Z,2.10
2023-01-04T02:08:02.557Z,2.22
2023-01-04T02:10:30.852Z,2.40
2023-01-04T02:13:00.185Z,2.58
2023-01-04T02:15:31.859Z,2.30
2023-01-04T02:18:14.364Z,2.20
2023-01-04T02:21:05.481Z,2.50
2023-01-04T02:23:32.861Z,2.38
2023-01-04T02:26:03.002Z,2.20
2023-01-04T02:28:48.154Z,2.30
2023-01-04T02:31:24.079Z,2.10
2023-01-04T02:34:22.120Z,2.08
2023-01-04T02:37:10.736Z,2.38
2023-01-04T02:40:02.336Z,2.05
2023-01-04T02:43:03.008Z,2.13
2023-01-04T02:45:39.433Z,1.95
2023-01-04T02:48:25.878Z,2.00
2023-01-04T02:50:58.791Z,2.00
2023-01-04T02:53:36.092Z,2.13
2023-01-04T02:56:10.368Z,2.13
2023-01-04T02:58:37.457Z,2.40
2023-01-04T03:01:52.407Z,2.47
2023-01-04T03:04:53.139Z,2.50
2023-01-04T03:07:39.678Z,2.30
2023-01-04T03:10:33.184Z,2.70
2023-01-04T03:13:26.676Z,2.10
2023-01-04T03:16:04.775Z,2.33
2023-01-04T03:18:36.417Z,2.38
2023-01-04T03:21:05.400Z,2.75
2023-01-04T03:23:55.421Z,2.53
2023-01-04T03:27:03.293Z,2.85
2023-01-04T03:30:02.751Z,2.63
2023-01-04T03:32:59.189Z,2.78
2023-01-04T03:35:37.883Z,2.80
2023-01-04T03:38:45.369Z,3.20
2023-01-04T03:41:55.735Z,2.67
2023-01-04T03:45:12.840Z,2.35
2023-01-04T03:48:31.062Z,2.45
2023-01-04T03:51:04.191Z,2.33
2023-01-04T03:53:36.087Z,1.92
2023-01-04T03:56:03.894Z,2.33
2023-01-04T03:58:31.002Z,2.25
2023-01-04T04:01:03.679Z,2.47
2023-01-04T04:03:50.712Z,1.80
2023-01-04T04:06:36.765Z,1.63
2023-01-04T04:09:04.516Z,1.98
2023-01-04T04:11:31.664Z,1.80
2023-01-04T04:13:59.969Z,1.73
2023-01-04T04:16:28.468Z,1.70
2023-01-04T04:18:56.104Z,1.75
2023-01-04T04:21:23.287Z,1.80
2023-01-04T04:23:50.592Z,2.03
2023-01-04T04:26:17.827Z,1.58
2023-01-04T04:28:45.067Z,1.83
2023-01-04T04:31:12.359Z,2.17
2023-01-04T04:33:40.201Z,2.30
2023-01-04T04:36:08.660Z,2.10
2023-01-04T04:38:36.392Z,2.08
2023-01-04T04:41:26.323Z,1.73
2023-01-04T04:43:54.200Z,2.20
2023-01-04T04:46:21.439Z,2.20
2023-01-04T04:48:48.716Z,2.28
2023-01-04T04:51:15.812Z,2.25
2023-01-04T04:53:43.135Z,2.28
2023-01-04T04:56:10.829Z,2.20
2023-01-04T04:58:39.439Z,2.65
2023-01-04T05:01:07.378Z,1.98
2023-01-04T05:03:34.719Z,2.83
2023-01-04T05:06:01.973Z,2.60
2023-01-04T05:08:29.211Z,2.58
2023-01-04T05:10:56.539Z,2.13
2023-01-04T05:13:23.777Z,2.08
2023-01-04T05:15:52.754Z,2.63
2023-01-04T05:18:21.488Z,2.17
2023-01-04T05:20:49.370Z,2.38
2023-01-04T05:23:18.428Z,2.03
2023-01-04T05:25:45.853Z,1.70
2023-01-04T05:28:13.136Z,2.30
2023-01-04T05:30:52.210Z,1.70
2023-01-04T05:33:27.797Z,1.95
2023-01-04T05:35:56.559Z,2.00
2023-01-04T05:38:23.887Z,2.08
2023-01-04T05:40:51.565Z,2.17
2023-01-04T05:43:20.434Z,2.40
2023-01-04T05:45:49.621Z,1.95
2023-01-04T05:48:17.511Z,1.73
2023-01-04T05:50:46.053Z,2.05
2023-01-04T05:53:14.731Z,2.10
2023-01-04T05:55:41.741Z,2.17
2023-01-04T05:58:09.229Z,1.77
2023-01-04T06:00:36.383Z,1.95
2023-01-04T06:03:03.649Z,2.10
2023-01-04T06:05:31.045Z,1.60
2023-01-04T06:07:58.063Z,1.60
2023-01-04T06:10:25.196Z,1.58
2023-01-04T06:12:52.461Z,1.33
2023-01-04T06:15:19.692Z,1.90
2023-01-04T06:17:46.826Z,1.90
2023-01-04T06:20:14.103Z,1.70
2023-01-04T06:22:41.935Z,1.70
2023-01-04T06:25:10.117Z,1.58
2023-01-04T06:27:37.432Z,1.83
2023-01-04T06:30:05.819Z,1.45
2023-01-04T06:32:33.586Z,1.80
2023-01-04T06:35:00.694Z,1.75
2023-01-04T06:37:27.830Z,2.00
2023-01-04T06:39:54.999Z,1.73
2023-01-04T06:42:40.716Z,1.75
2023-01-04T06:45:08.695Z,1.52
2023-01-04T06:47:36.523Z,1.50
2023-01-04T06:50:04.878Z,1.50
2023-01-04T06:52:32.076Z,1.70
2023-01-04T06:54:59.344Z,1.80
2023-01-04T06:57:26.444Z,2.00
2023-01-04T06:59:53.662Z,2.17
2023-01-04T07:02:20.920Z,1.80
2023-01-04T07:04:48.513Z,1.95
2023-01-04T07:07:15.884Z,2.03
2023-01-04T07:09:42.990Z,2.10
2023-01-04T07:12:10.149Z,2.05
2023-01-04T07:14:37.329Z,1.83
2023-01-04T07:17:04.440Z,1.98
2023-01-04T07:19:31.577Z,1.98
2023-01-04T07:21:59.059Z,2.20
2023-01-04T07:24:30.438Z,2.30
2023-01-04T07:27:00.401Z,2.15
2023-01-04T07:29:28.123Z,1.98
2023-01-04T07:31:56.069Z,2.00
2023-01-04T07:34:25.776Z,1.90
2023-01-04T07:36:53.230Z,1.85
2023-01-04T07:39:21.364Z,2.00
2023-01-04T07:41:49.464Z,2.00
2023-01-04T07:44:18.285Z,1.90
2023-01-04T07:46:45.677Z,1.90
2023-01-04T07:49:17.929Z,2.83
2023-01-04T07:51:49.759Z,2.35
2023-01-04T07:54:18.301Z,1.92
2023-01-04T07:56:47.491Z,1.98
2023-01-04T07:59:16.279Z,2.00
2023-01-04T08:01:43.680Z,2.22
2023-01-04T08:04:13.159Z,2.42
2023-01-04T08:06:41.637Z,2.15
2023-01-04T08:09:09.207Z,2.25
2023-01-04T08:11:36.546Z,2.00
2023-01-04T08:14:04.022Z,2.15
2023-01-04T08:16:33.964Z,2.00
2023-01-04T08:19:04.341Z,1.98
2023-01-04T08:21:32.883Z,1.90
2023-01-04T08:24:00.679Z,1.58
2023-01-04T08:26:28.384Z,2.10
2023-01-04T08:28:56.754Z,2.00
2023-01-04T08:31:27.661Z,1.95
2023-01-04T08:33:55.781Z,2.10
2023-01-04T08:36:27.163Z,2.00
2023-01-04T08:39:00.446Z,2.15
2023-01-04T08:41:56.681Z,2.53
2023-01-04T08:44:18.249Z,2.35
2023-01-04T08:46:45.762Z,2.25
2023-01-04T08:49:13.369Z,2.50
2023-01-04T08:51:41.155Z,2.95
2023-01-04T08:54:08.767Z,2.80
2023-01-04T08:56:36.155Z,3.53
2023-01-04T08:59:03.443Z,3.10
2023-01-04T09:01:32.930Z,3.70
2023-01-04T09:04:00.284Z,3.53
2023-01-04T09:06:28.009Z,4.28
2023-01-04T09:08:56.918Z,5.10
2023-01-04T09:11:25.069Z,5.40
2023-01-04T09:14:07.848Z,5.93
2023-01-04T09:16:37.182Z,5.60
2023-01-04T09:19:05.816Z,5.90
2023-01-04T09:21:32.995Z,6.20
2023-01-04T09:24:00.150Z,5.35
2023-01-04T09:26:27.573Z,5.47
2023-01-04T09:28:56.094Z,5.55
2023-01-04T09:31:28.481Z,6.05
2023-01-04T09:34:15.181Z,5.60
2023-01-04T09:36:44.303Z,7.30
2023-01-04T09:39:18.846Z,6.45
2023-01-04T09:41:55.185Z,5.80
2023-01-04T09:44:39.649Z,5.47
2023-01-04T09:47:21.958Z,5.22
2023-01-04T09:49:54.963Z,5.85
2023-01-04T09:52:27.793Z,6.68
2023-01-04T09:55:04.835Z,6.53
2023-01-04T10:00:40.257Z,5.93
2023-01-04T10:03:25.208Z,6.35
2023-01-04T10:05:55.545Z,5.68
2023-01-04T10:08:23.154Z,6.00
2023-01-04T10:11:12.204Z,5.97
2023-01-04T10:14:04.108Z,6.20
2023-01-04T10:21:17.727Z,5.97
2023-01-04T10:23:18.169Z,7.28
2023-01-04T10:25:57.147Z,6.05
2023-01-04T10:28:54.820Z,5.78
2023-01-04T10:31:50.339Z,6.25
2023-01-04T10:34:30.576Z,6.50
2023-01-04T10:37:01.109Z,5.55
2023-01-04T10:39:36.181Z,5.25
2023-01-04T10:42:33.696Z,5.50
2023-01-04T10:45:22.854Z,6.05
2023-01-04T10:47:56.024Z,5.75
2023-01-04T10:50:29.789Z,5.50
2023-01-04T10:53:22.225Z,5.60
2023-01-04T10:56:27.119Z,5.73
2023-01-04T10:59:03.372Z,6.30
2023-01-04T11:01:54.683Z,6.10
2023-01-04T11:04:30.691Z,5.20
2023-01-04T11:07:13.456Z,6.35
2023-01-04T11:09:50.658Z,6.18
2023-01-04T11:12:21.592Z,5.57
2023-01-04T11:14:52.437Z,5.70
2023-01-04T11:17:21.544Z,6.13
2023-01-04T11:19:49.326Z,6.43
2023-01-04T11:22:39.816Z,6.38
2023-01-04T11:28:26.341Z,6.78
2023-01-04T11:31:03.584Z,6.15
2023-01-04T11:33:30.964Z,5.13
2023-01-04T11:35:59.559Z,5.10
2023-01-04T11:38:29.522Z,4.30
2023-01-04T11:41:02.309Z,4.65
2023-01-04T11:43:31.728Z,4.85
2023-01-04T11:46:05.633Z,4.85
2023-01-04T11:48:39.444Z,4.50
2023-01-04T11:51:17.328Z,4.03
2023-01-04T11:53:44.685Z,3.50
2023-01-04T11:56:23.059Z,3.80
2023-01-04T11:59:06.779Z,4.00
2023-01-04T12:01:37.246Z,3.92
2023-01-04T12:04:12.120Z,3.80
2023-01-04T12:07:05.168Z,3.40
2023-01-04T12:09:32.906Z,3.50
2023-01-04T12:12:01.475Z,2.67
2023-01-04T12:14:36.625Z,2.50
2023-01-04T12:17:25.787Z,2.03
2023-01-04T12:19:56.666Z,2.20
2023-01-04T12:22:37.049Z,1.80
2023-01-04T12:25:08.397Z,1.88
2023-01-04T12:27:36.715Z,2.10
2023-01-04T12:30:08.210Z,2.05
2023-01-04T12:32:35.450Z,2.13
2023-01-04T12:35:02.859Z,2.38
2023-01-04T12:37:48.595Z,2.33
2023-01-04T12:40:46.973Z,2.40
2023-01-04T12:43:17.179Z,2.30
2023-01-04T12:46:08.480Z,2.60
2023-01-04T12:48:54.049Z,2.22
2023-01-04T12:51:34.061Z,2.38
2023-01-04T12:54:04.380Z,3.03
2023-01-04T12:57:22.329Z,2.60
2023-01-04T12:59:59.140Z,2.88
2023-01-04T13:02:30.191Z,2.88
2023-01-04T13:05:54.126Z,2.75
2023-01-04T13:07:59.975Z,2.80
2023-01-04T13:11:02.194Z,3.58
2023-01-04T13:13:38.587Z,2.75
2023-01-04T13:16:20.253Z,2.78
2023-01-04T13:18:51.406Z,2.80
2023-01-04T13:21:39.758Z,2.92
2023-01-04T13:24:20.885Z,2.00
2023-01-04T13:26:48.603Z,2.30
2023-01-04T13:29:17.558Z,1.65
2023-01-04T13:31:59.834Z,1.63
2023-01-04T13:34:33.863Z,1.60
2023-01-04T13:37:00.959Z,1.30
2023-01-04T13:39:28.811Z,1.70
2023-01-04T13:41:56.591Z,1.40
2023-01-04T13:45:09.116Z,1.70
2023-01-04T13:47:26.020Z,1.50
2023-01-04T13:49:53.223Z,1.58
2023-01-04T13:55:22.616Z,1.40
2023-01-04T13:57:54.633Z,1.77
2023-01-04T14:00:22.096Z,1.50
2023-01-04T14:03:04.682Z,1.58
2023-01-04T14:05:32.191Z,2.08
2023-01-04T14:08:00.130Z,1.50
2023-01-04T14:10:27.808Z,1.63
2023-01-04T14:12:55.017Z,1.60
2023-01-04T14:15:24.971Z,1.58
2023-01-04T14:17:57.279Z,1.77
2023-01-04T14:20:24.379Z,1.60
2023-01-04T14:22:59.016Z,1.80
2023-01-04T14:25:35.911Z,1.90
2023-01-04T14:28:28.569Z,1.75
2023-01-04T14:31:12.829Z,2.15
2023-01-04T14:33:45.489Z,2.20
2023-01-04T14:36:23.172Z,2.33
2023-01-04T14:38:56.355Z,2.10
2023-01-04T14:41:52.630Z,2.00
2023-01-04T14:44:22.314Z,2.35
2023-01-04T14:46:51.902Z,2.10
2023-01-04T14:49:20.196Z,2.78
2023-01-04T14:51:59.537Z,2.55
2023-01-04T14:54:28.447Z,2.85
2023-01-04T14:56:57.711Z,2.95
2023-01-04T14:59:25.441Z,2.17
2023-01-04T15:01:54.449Z,2.95
2023-01-04T15:04:22.066Z,3.30
2023-01-04T15:06:53.246Z,3.45
2023-01-04T15:09:21.168Z,3.05
2023-01-04T15:11:48.305Z,3.47
2023-01-04T15:14:15.531Z,2.92
2023-01-04T15:16:42.994Z,3.08
2023-01-04T15:19:10.307Z,3.20
2023-01-04T15:21:41.247Z,3.60
2023-01-04T15:24:10.245Z,3.50
2023-01-04T15:26:38.620Z,3.38
2023-01-04T15:29:07.005Z,3.85
2023-01-04T15:31:38.984Z,3.95
2023-01-04T15:36:38.634Z,3.35
2023-01-04T15:39:06.470Z,4.05
2023-01-04T15:41:52.683Z,4.00
2023-01-04T15:44:19.881Z,3.95
2023-01-04T15:46:47.115Z,4.95
2023-01-04T15:49:17.505Z,4.78
2023-01-04T15:51:45.933Z,5.00
2023-01-04T15:54:13.536Z,4.68
2023-01-04T15:56:40.651Z,4.85
2023-01-04T15:59:08.024Z,4.32
2023-01-04T16:01:35.284Z,4.45
2023-01-04T16:04:03.367Z,4.68
2023-01-04T16:06:32.360Z,4.78
2023-01-04T16:09:00.089Z,4.72
2023-01-04T16:11:27.351Z,5.55
2023-01-04T16:13:54.491Z,4.82
2023-01-04T16:16:23.722Z,4.80
2023-01-04T16:18:53.069Z,4.00
2023-01-04T16:21:26.870Z,4.90
2023-01-04T16:24:03.849Z,4.78
2023-01-04T16:26:32.904Z,4.10
2023-01-04T16:29:01.072Z,5.07
2023-01-04T16:31:33.473Z,4.82
2023-01-04T16:34:00.660Z,7.20
2023-01-04T16:36:28.037Z,6.30
2023-01-04T16:38:55.590Z,4.78
2023-01-04T16:41:23.223Z,5.88
2023-01-04T16:43:55.632Z,5.63
2023-01-04T16:46:35.048Z,5.45
2023-01-04T16:49:09.939Z,4.75
2023-01-04T16:51:41.104Z,5.30
2023-01-04T16:54:12.319Z,4.90
2023-01-04T16:56:40.394Z,4.63
2023-01-04T16:59:08.804Z,5.07
2023-01-04T17:01:44.183Z,5.70
2023-01-04T17:04:16.179Z,5.43
2023-01-04T17:06:45.964Z,5.05
2023-01-04T17:09:16.257Z,5.00
2023-01-04T17:14:44.187Z,7.50
2023-01-04T17:17:11.376Z,4.88
2023-01-04T17:19:38.671Z,4.75
2023-01-04T17:22:06.093Z,4.55
2023-01-04T17:24:33.295Z,4.15
2023-01-04T17:27:00.527Z,4.47
2023-01-04T17:29:27.667Z,15.82
2023-01-04T17:31:54.878Z,5.35
2023-01-04T17:34:23.282Z,4.55
2023-01-04T17:36:50.803Z,4.47
2023-01-04T17:39:20.807Z,4.13
2023-01-04T17:41:47.971Z,4.43
2023-01-04T17:44:15.815Z,4.63
2023-01-04T17:46:43.455Z,3.75
2023-01-04T17:49:31.817Z,5.10
2023-01-04T17:51:59.905Z,5.38
2023-01-04T17:54:27.353Z,4.78
2023-01-04T17:56:54.550Z,4.82
2023-01-04T17:59:21.955Z,5.60
2023-01-04T18:01:49.241Z,28.30
2023-01-04T18:04:16.599Z,14.18
2023-01-04T18:06:43.758Z,6.18
2023-01-04T18:09:14.369Z,5.20
2023-01-04T18:11:44.644Z,5.15
2023-01-04T18:14:14.042Z,5.60
2023-01-04T18:16:57.668Z,5.57
2023-01-04T18:19:28.085Z,5.30
2023-01-04T18:21:56.004Z,5.13
2023-01-04T18:24:39.423Z,5.85
2023-01-04T18:27:23.811Z,5.03
2023-01-04T18:29:54.531Z,4.78
2023-01-04T18:32:22.803Z,5.00
2023-01-04T18:34:50.002Z,4.93
2023-01-04T18:37:18.930Z,6.53
2023-01-04T18:39:47.440Z,5.50
2023-01-04T18:42:14.771Z,4.45
2023-01-04T18:44:47.913Z,4.50
2023-01-04T18:47:17.876Z,4.55
2023-01-04T18:49:45.101Z,4.85
2023-01-04T18:52:12.673Z,4.97
2023-01-04T18:54:39.795Z,4.45
2023-01-04T18:57:07.013Z,4.07
2023-01-04T18:59:34.572Z,4.38
2023-01-04T19:02:02.797Z,4.80
2023-01-04T19:04:33.492Z,4.47
2023-01-04T19:07:01.151Z,4.78
2023-01-04T19:09:28.342Z,4.40
2023-01-04T19:11:55.618Z,4.60
2023-01-04T19:14:22.726Z,4.72
2023-01-04T19:16:49.888Z,4.18
2023-01-04T19:19:17.246Z,4.00
2023-01-04T19:21:44.397Z,3.58
2023-01-04T19:24:11.503Z,4.25
2023-01-04T19:26:39.364Z,4.05
2023-01-04T19:29:08.373Z,4.55
2023-01-04T19:31:36.110Z,4.13
2023-01-04T19:34:03.553Z,4.05
2023-01-04T19:36:30.819Z,4.25
2023-01-04T19:38:58.206Z,3.70
2023-01-04T19:41:33.802Z,3.30
2023-01-04T19:44:06.305Z,3.42
2023-01-04T19:46:33.768Z,3.53
2023-01-04T19:49:00.962Z,3.47
2023-01-04T19:51:28.137Z,4.28
2023-01-04T19:53:55.369Z,3.40
2023-01-04T19:56:22.461Z,3.90
2023-01-04T19:58:49.852Z,3.80
2023-01-04T20:01:19.893Z,2.70
2023-01-04T20:03:47.878Z,3.22
2023-01-04T20:06:16.822Z,2.80
2023-01-04T20:08:44.258Z,2.50
2023-01-04T20:11:12.580Z,3.00
2023-01-04T20:13:40.892Z,2.83
2023-01-04T20:16:08.802Z,3.03
2023-01-04T20:18:37.351Z,7.03
2023-01-04T20:21:10.728Z,3.50
2023-01-04T20:23:38.792Z,2.90
2023-01-04T20:26:12.586Z,2.67
2023-01-04T20:28:41.971Z,2.45
2023-01-04T20:31:11.201Z,2.60
2023-01-04T20:33:38.397Z,2.50
2023-01-04T20:36:07.766Z,2.63
2023-01-04T20:38:42.635Z,2.53
2023-01-04T20:41:13.537Z,2.65
2023-01-04T20:43:40.981Z,2.38
2023-01-04T20:46:15.112Z,2.72
2023-01-04T20:48:42.915Z,2.53
2023-01-04T20:51:16.566Z,2.10
2023-01-04T20:53:43.804Z,2.53
2023-01-04T20:56:17.140Z,2.47
2023-01-04T20:58:45.658Z,2.13
2023-01-04T21:01:13.536Z,2.30
2023-01-04T21:03:41.006Z,2.33
2023-01-04T21:06:11.053Z,2.40
2023-01-04T21:08:39.795Z,1.85
2023-01-04T21:11:07.719Z,2.35
2023-01-04T21:13:34.832Z,2.63
2023-01-04T21:16:02.417Z,1.90
2023-01-04T21:18:29.781Z,2.20
2023-01-04T21:20:57.021Z,2.00
2023-01-04T21:23:26.748Z,2.38
2023-01-04T21:25:54.201Z,2.00
2023-01-04T21:28:22.538Z,2.25
2023-01-04T21:30:50.123Z,1.80
2023-01-04T21:33:17.608Z,2.00
2023-01-04T21:35:44.648Z,2.13
2023-01-04T21:38:11.799Z,2.28
2023-01-04T21:40:41.207Z,1.92
2023-01-04T21:43:15.290Z,1.90
2023-01-04T21:45:42.460Z,1.67
2023-01-04T21:48:09.742Z,1.70
2023-01-04T21:50:37.346Z,1.75
2023-01-04T21:53:04.823Z,1.73
2023-01-04T21:55:34.812Z,1.52
2023-01-04T21:58:02.928Z,1.50
2023-01-04T22:00:30.289Z,1.40
2023-01-04T22:02:57.698Z,1.20
2023-01-04T22:05:24.842Z,1.15
2023-01-04T22:07:52.055Z,1.20
2023-01-04T22:10:19.200Z,1.08
2023-01-04T22:12:48.030Z,1.08
2023-01-04T22:15:15.183Z,1.00
2023-01-04T22:17:42.370Z,1.00
2023-01-04T22:20:10.823Z,0.90
2023-01-04T22:22:37.968Z,0.93
2023-01-04T22:25:05.744Z,0.77
2023-01-04T22:27:32.979Z,1.00
2023-01-04T22:30:00.125Z,0.90
2023-01-04T22:32:28.059Z,1.05
2023-01-04T22:34:55.076Z,0.80
2023-01-04T22:37:22.307Z,0.90
2023-01-04T22:39:49.352Z,0.70
2023-01-04T22:42:16.416Z,0.63
2023-01-04T22:44:43.524Z,0.70
2023-01-04T22:47:10.667Z,0.73
2023-01-04T22:49:37.687Z,0.60
2023-01-04T22:52:05.029Z,0.73
2023-01-04T22:54:33.187Z,0.80
2023-01-04T22:57:00.514Z,0.60
2023-01-04T22:59:27.819Z,0.90
2023-01-04T23:01:54.941Z,0.90
2023-01-04T23:04:22.320Z,0.75
2023-01-04T23:06:49.637Z,0.90
2023-01-04T23:09:18.963Z,0.80
2023-01-04T23:11:46.371Z,0.77
2023-01-04T23:14:15.938Z,0.70
2023-01-04T23:16:44.531Z,0.80
2023-01-04T23:19:13.675Z,0.68
2023-01-04T23:21:41.420Z,1.00
2023-01-04T23:24:13.567Z,0.85
2023-01-04T23:26:40.853Z,1.10
2023-01-04T23:29:08.026Z,0.80
2023-01-04T23:31:35.127Z,0.90
2023-01-04T23:34:04.780Z,0.85
2023-01-04T23:36:40.751Z,0.70
2023-01-04T23:39:12.597Z,0.80
2023-01-04T23:41:46.316Z,0.80
2023-01-04T23:44:25.313Z,0.50
2023-01-04T23:46:53.829Z,0.60
2023-01-04T23:49:21.876Z,0.70
2023-01-04T23:51:49.289Z,0.80
2023-01-04T23:54:16.670Z,0.80
2023-01-04T23:56:43.897Z,0.65
2023-01-04T23:59:11.549Z,0.60
